createdAt,value
2023-04-07T00:01:25.833Z,100520.80
2023-04-07T00:03:55.226Z,100523.45
2023-04-07T00:06:23.813Z,100524.17
2023-04-07T00:08:57.058Z,100524.44
2023-04-07T00:11:25.674Z,100521.27
2023-04-07T00:13:54.152Z,100523.42
2023-04-07T00:16:23.176Z,100524.05
2023-04-07T00:18:52.434Z,100529.20
2023-04-07T00:21:20.779Z,100531.13
2023-04-07T00:23:49.294Z,100529.14
2023-04-07T00:26:17.701Z,100529.72
2023-04-07T00:28:46.997Z,100530.81
2023-04-07T00:31:23.080Z,100535.41
2023-04-07T00:33:51.380Z,100534.86
2023-04-07T00:36:19.545Z,100537.02
2023-04-07T00:38:47.678Z,100537.75
2023-04-07T00:41:16.084Z,100538.19
2023-04-07T00:43:44.576Z,100538.32
2023-04-07T00:46:13.448Z,100544.20
2023-04-07T00:48:45.057Z,100541.51
2023-04-07T00:51:13.725Z,100546.11
2023-04-07T00:53:42.080Z,100548.66
2023-04-07T00:56:10.980Z,100553.59
2023-04-07T00:58:39.334Z,100553.28
2023-04-07T01:01:11.561Z,100555.36
2023-04-07T01:03:55.180Z,100556.73
2023-04-07T01:06:26.975Z,100560.73
2023-04-07T01:09:14.130Z,100566.69
2023-04-07T01:12:07.785Z,100564.70
2023-04-07T01:14:41.306Z,100571.05
2023-04-07T01:17:27.513Z,100574.74
2023-04-07T01:19:59.601Z,100575.08
2023-04-07T01:22:48.072Z,100579.55
2023-04-07T01:25:23.775Z,100580.73
2023-04-07T01:28:00.618Z,100581.71
2023-04-07T01:30:30.491Z,100582.00
2023-04-07T01:33:00.957Z,100582.52
2023-04-07T01:35:33.417Z,100579.40
2023-04-07T01:38:01.652Z,100589.30
2023-04-07T01:40:30.208Z,100592.33
2023-04-07T01:42:58.504Z,100589.64
2023-04-07T01:45:27.053Z,100595.94
2023-04-07T01:47:55.559Z,100598.40
2023-04-07T01:50:24.044Z,100599.24
2023-04-07T01:52:53.222Z,100595.73
2023-04-07T01:55:21.683Z,100597.52
2023-04-07T01:58:06.502Z,100599.69
2023-04-07T02:00:36.413Z,100597.39
2023-04-07T02:03:32.087Z,100604.30
2023-04-07T02:06:04.498Z,100604.13
2023-04-07T02:08:33.234Z,100607.39
2023-04-07T02:11:03.870Z,100607.35
2023-04-07T02:13:35.935Z,100610.85
2023-04-07T02:16:04.347Z,100611.80
2023-04-07T02:18:34.382Z,100611.39
2023-04-07T02:21:02.976Z,100611.51
2023-04-07T02:23:31.207Z,100613.55
2023-04-07T02:25:59.358Z,100614.56
2023-04-07T02:28:27.928Z,100615.06
2023-04-07T02:30:56.379Z,100615.92
2023-04-07T02:33:25.874Z,100616.25
2023-04-07T02:35:54.202Z,100620.41
2023-04-07T02:38:23.609Z,100619.39
2023-04-07T02:40:52.224Z,100622.71
2023-04-07T02:43:21.375Z,100622.40
2023-04-07T02:45:52.837Z,100627.60
2023-04-07T02:48:21.302Z,100628.83
2023-04-07T02:50:49.769Z,100631.98
2023-04-07T02:53:19.793Z,100633.11
2023-04-07T02:55:48.140Z,100636.27
2023-04-07T02:58:16.665Z,100637.87
2023-04-07T03:00:45.613Z,100637.96
2023-04-07T03:03:23.332Z,100644.50
2023-04-07T03:06:06.129Z,100643.37
2023-04-07T03:08:35.740Z,100644.30
2023-04-07T03:11:07.149Z,100651.25
2023-04-07T03:13:35.808Z,100651.09
2023-04-07T03:16:07.996Z,100656.02
2023-04-07T03:18:45.950Z,100658.52
2023-04-07T03:21:14.460Z,100659.48
2023-04-07T03:23:43.003Z,100660.61
2023-04-07T03:26:11.503Z,100663.14
2023-04-07T03:28:40.055Z,100664.77
2023-04-07T03:31:10.884Z,100668.45
2023-04-07T03:33:39.275Z,100670.38
2023-04-07T03:36:08.440Z,100671.45
2023-04-07T03:38:37.079Z,100674.23
2023-04-07T03:41:05.765Z,100679.78
2023-04-07T03:43:34.578Z,100684.13
2023-04-07T03:46:03.400Z,100683.95
2023-04-07T03:48:35.796Z,100687.80
2023-04-07T03:51:09.475Z,100691.35
2023-04-07T03:53:39.329Z,100695.20
2023-04-07T03:56:30.283Z,100697.98
2023-04-07T03:59:00.755Z,100700.66
2023-04-07T04:01:32.349Z,100706.96
2023-04-07T04:04:06.402Z,100710.67
2023-04-07T04:06:37.240Z,100711.77
2023-04-07T04:09:12.486Z,100717.26
2023-04-07T04:11:45.092Z,100715.71
2023-04-07T04:14:16.092Z,100723.48
2023-04-07T04:16:49.816Z,100728.66
2023-04-07T04:19:26.761Z,100731.41
2023-04-07T04:21:57.728Z,100735.09
2023-04-07T04:24:26.846Z,100733.22
2023-04-07T04:26:57.031Z,100738.95
2023-04-07T04:29:25.473Z,100744.33
2023-04-07T04:31:55.539Z,100742.71
2023-04-07T04:34:26.683Z,100748.55
2023-04-07T04:36:55.873Z,100751.00
2023-04-07T04:39:24.259Z,100750.13
2023-04-07T04:41:57.053Z,100755.50
2023-04-07T04:44:30.840Z,100755.48
2023-04-07T04:47:05.128Z,100758.88
2023-04-07T04:49:33.785Z,100766.23
2023-04-07T04:52:03.552Z,100769.30
2023-04-07T04:54:38.856Z,100772.92
2023-04-07T04:57:07.535Z,100773.07
2023-04-07T04:59:42.728Z,100774.17
2023-04-07T05:02:11.728Z,100775.98
2023-04-07T05:04:40.809Z,100776.35
2023-04-07T05:07:25.132Z,100783.55
2023-04-07T05:09:57.449Z,100787.85
2023-04-07T05:12:26.369Z,100792.84
2023-04-07T05:14:59.785Z,100792.71
2023-04-07T05:17:29.468Z,100797.58
2023-04-07T05:19:58.582Z,100797.18
2023-04-07T05:22:45.787Z,100803.29
2023-04-07T05:25:16.583Z,100800.88
2023-04-07T05:27:46.943Z,100803.17
2023-04-07T05:30:22.094Z,100802.46
2023-04-07T05:32:53.599Z,100804.84
2023-04-07T05:35:33.389Z,100805.71
2023-04-07T05:38:06.080Z,100812.28
2023-04-07T05:40:37.295Z,100815.44
2023-04-07T05:43:06.812Z,100818.50
2023-04-07T05:45:36.411Z,100817.33
2023-04-07T05:48:05.082Z,100822.19
2023-04-07T05:50:41.960Z,100822.42
2023-04-07T05:53:13.807Z,100826.46
2023-04-07T05:55:43.818Z,100825.70
2023-04-07T05:58:16.748Z,100828.47
2023-04-07T06:00:46.864Z,100828.10
2023-04-07T06:03:16.752Z,100834.77
2023-04-07T06:05:55.522Z,100834.43
2023-04-07T06:08:24.320Z,100834.56
2023-04-07T06:10:52.699Z,100833.04
2023-04-07T06:13:21.475Z,100835.79
2023-04-07T06:15:50.964Z,100839.91
2023-04-07T06:18:20.048Z,100841.56
2023-04-07T06:20:48.606Z,100849.02
2023-04-07T06:23:17.418Z,100850.27
2023-04-07T06:25:46.351Z,100855.06
2023-04-07T06:28:14.734Z,100852.41
2023-04-07T06:30:44.218Z,100855.67
2023-04-07T06:33:14.653Z,100857.55
2023-04-07T06:35:43.000Z,100866.63
2023-04-07T06:38:12.563Z,100865.64
2023-04-07T06:40:41.329Z,100870.46
2023-04-07T06:43:09.614Z,100867.03
2023-04-07T06:45:42.155Z,100871.82
2023-04-07T06:48:11.304Z,100867.25
2023-04-07T06:50:41.717Z,100869.75
2023-04-07T06:53:33.814Z,100868.02
2023-04-07T06:56:05.186Z,100870.02
2023-04-07T06:58:35.083Z,100872.96
2023-04-07T07:01:09.507Z,100871.81
2023-04-07T07:03:40.038Z,100877.40
2023-04-07T07:06:08.842Z,100872.43
2023-04-07T07:08:37.232Z,100872.81
2023-04-07T07:11:05.760Z,100874.89
2023-04-07T07:13:35.689Z,100872.77
2023-04-07T07:16:04.621Z,100875.48
2023-04-07T07:18:33.801Z,100878.08
2023-04-07T07:21:02.543Z,100876.85
2023-04-07T07:23:31.144Z,100874.80
2023-04-07T07:26:00.242Z,100878.27
2023-04-07T07:28:29.440Z,100880.96
2023-04-07T07:30:58.239Z,100885.10
2023-04-07T07:33:32.464Z,100883.27
2023-04-07T07:36:00.911Z,100887.17
2023-04-07T07:38:33.344Z,100890.29
2023-04-07T07:41:03.367Z,100891.90
2023-04-07T07:43:34.337Z,100893.89
2023-04-07T07:46:02.720Z,100893.54
2023-04-07T07:48:33.963Z,100895.08
2023-04-07T07:51:02.412Z,100894.55
2023-04-07T07:53:30.971Z,100896.47
2023-04-07T07:56:01.412Z,100897.66
2023-04-07T07:58:29.891Z,100900.07
2023-04-07T08:00:59.662Z,100900.29
2023-04-07T08:03:36.122Z,100899.33
2023-04-07T08:06:06.603Z,100900.92
2023-04-07T08:08:36.020Z,100896.62
2023-04-07T08:11:04.449Z,100895.88
2023-04-07T08:13:33.244Z,100899.77
2023-04-07T08:16:01.914Z,100901.86
2023-04-07T08:18:30.301Z,100897.44
2023-04-07T08:20:58.486Z,100902.91
2023-04-07T08:23:27.134Z,100901.13
2023-04-07T08:25:55.675Z,100900.27
2023-04-07T08:28:26.025Z,100898.54
2023-04-07T08:30:54.153Z,100899.02
2023-04-07T08:33:22.968Z,100900.88
2023-04-07T08:35:52.283Z,100896.84
2023-04-07T08:38:21.153Z,100900.55
2023-04-07T08:40:50.864Z,100900.52
2023-04-07T08:43:20.633Z,100900.85
2023-04-07T08:45:49.025Z,100901.13
2023-04-07T08:48:17.988Z,100901.14
2023-04-07T08:50:46.407Z,100899.13
2023-04-07T08:53:15.212Z,100900.34
2023-04-07T08:55:43.426Z,100897.23
2023-04-07T08:58:12.688Z,100899.45
2023-04-07T09:00:42.386Z,100901.21
2023-04-07T09:03:21.909Z,100903.34
2023-04-07T09:05:51.394Z,100905.42
2023-04-07T09:08:20.551Z,100905.15
2023-04-07T09:10:51.518Z,100901.13
2023-04-07T09:13:20.003Z,100902.92
2023-04-07T09:15:48.148Z,100899.88
2023-04-07T09:18:17.085Z,100902.36
2023-04-07T09:21:02.567Z,100901.66
2023-04-07T09:23:35.390Z,100899.39
2023-04-07T09:26:25.294Z,100904.63
2023-04-07T09:28:59.578Z,100903.40
2023-04-07T09:31:50.719Z,100903.89
2023-04-07T09:34:25.168Z,100908.59
2023-04-07T09:36:57.736Z,100903.15
2023-04-07T09:39:26.223Z,100907.45
2023-04-07T09:41:54.682Z,100902.70
2023-04-07T09:44:23.153Z,100903.39
2023-04-07T09:46:56.775Z,100905.94
2023-04-07T09:49:25.672Z,100903.10
2023-04-07T09:52:07.864Z,100904.28
2023-04-07T09:54:38.617Z,100906.59
2023-04-07T09:57:09.620Z,100906.20
2023-04-07T09:59:40.085Z,100906.04
2023-04-07T10:02:08.854Z,100905.86
2023-04-07T10:04:37.607Z,100903.42
2023-04-07T10:07:06.127Z,100902.80
2023-04-07T10:09:34.472Z,100903.80
2023-04-07T10:12:02.998Z,100904.30
2023-04-07T10:14:32.224Z,100907.40
2023-04-07T10:17:03.714Z,100906.60
2023-04-07T10:19:33.535Z,100904.89
2023-04-07T10:22:02.313Z,100903.84
2023-04-07T10:24:55.498Z,100908.18
2023-04-07T10:27:53.927Z,100908.46
2023-04-07T10:30:25.614Z,100906.84
2023-04-07T10:32:56.380Z,100908.48
2023-04-07T10:35:26.406Z,100903.73
2023-04-07T10:38:07.363Z,100905.22
2023-04-07T10:40:38.044Z,100906.09
2023-04-07T10:43:12.239Z,100904.58
2023-04-07T10:45:49.911Z,100906.33
2023-04-07T10:48:19.263Z,100905.02
2023-04-07T10:51:18.056Z,100902.13
2023-04-07T10:54:18.482Z,100900.27
2023-04-07T10:57:13.302Z,100898.25
2023-04-07T11:00:12.139Z,100899.27
2023-04-07T11:02:44.601Z,100896.55
2023-04-07T11:05:23.093Z,100895.84
2023-04-07T11:07:55.273Z,100895.13
2023-04-07T11:10:37.857Z,100897.73
2023-04-07T11:13:07.893Z,100892.30
2023-04-07T11:15:39.341Z,100889.67
2023-04-07T11:18:29.839Z,100889.98
2023-04-07T11:20:59.333Z,100889.77
2023-04-07T11:23:27.621Z,100887.81
2023-04-07T11:26:02.863Z,100886.04
2023-04-07T11:28:31.514Z,100881.96
2023-04-07T11:31:01.983Z,100880.45
2023-04-07T11:33:31.536Z,100879.38
2023-04-07T11:36:01.095Z,100876.27
2023-04-07T11:38:38.403Z,100872.88
2023-04-07T11:41:14.326Z,100876.16
2023-04-07T11:43:42.826Z,100871.70
2023-04-07T11:46:14.766Z,100873.52
2023-04-07T11:48:47.533Z,100870.33
2023-04-07T11:51:20.023Z,100870.95
2023-04-07T11:53:48.892Z,100872.80
2023-04-07T11:56:18.932Z,100870.80
2023-04-07T11:58:54.472Z,100867.33
2023-04-07T12:01:24.892Z,100867.48
2023-04-07T12:04:04.213Z,100870.94
2023-04-07T12:06:39.014Z,100865.92
2023-04-07T12:09:08.972Z,100866.36
2023-04-07T12:11:37.415Z,100864.58
2023-04-07T12:14:12.726Z,100865.92
2023-04-07T12:16:41.112Z,100868.04
2023-04-07T12:19:09.472Z,100862.80
2023-04-07T12:21:44.444Z,100860.71
2023-04-07T12:24:13.087Z,100862.65
2023-04-07T12:26:41.443Z,100860.84
2023-04-07T12:29:09.593Z,100856.47
2023-04-07T12:31:38.565Z,100858.05
2023-04-07T12:34:06.719Z,100856.73
2023-04-07T12:36:35.429Z,100852.85
2023-04-07T12:39:03.833Z,100849.05
2023-04-07T12:41:33.721Z,100845.41
2023-04-07T12:44:02.055Z,100842.95
2023-04-07T12:46:32.417Z,100841.88
2023-04-07T12:49:01.265Z,100843.94
2023-04-07T12:51:29.835Z,100849.28
2023-04-07T12:53:58.022Z,100853.69
2023-04-07T12:56:26.497Z,100845.68
2023-04-07T12:58:54.786Z,100851.11
2023-04-07T13:01:23.956Z,100843.77
2023-04-07T13:03:53.534Z,100843.22
2023-04-07T13:06:24.654Z,100844.92
2023-04-07T13:08:52.979Z,100840.68
2023-04-07T13:11:22.140Z,100844.23
2023-04-07T13:13:50.856Z,100846.66
2023-04-07T13:16:20.105Z,100851.47
2023-04-07T13:18:48.340Z,100850.98
2023-04-07T13:21:43.685Z,100848.73
2023-04-07T13:24:09.517Z,100847.92
2023-04-07T13:26:38.518Z,100844.77
2023-04-07T13:29:07.072Z,100844.88
2023-04-07T13:31:35.391Z,100848.45
2023-04-07T13:34:04.917Z,100849.25
2023-04-07T13:36:33.626Z,100845.63
2023-04-07T13:39:02.328Z,100846.79
2023-04-07T13:41:30.871Z,100842.84
2023-04-07T13:44:01.177Z,100845.24
2023-04-07T13:46:52.588Z,100846.21
2023-04-07T13:49:21.919Z,100846.20
2023-04-07T13:51:50.045Z,100845.61
2023-04-07T13:54:18.933Z,100849.30
2023-04-07T13:56:49.207Z,100848.73
2023-04-07T13:59:17.362Z,100849.86
2023-04-07T14:01:46.111Z,100851.11
2023-04-07T14:04:15.578Z,100854.48
2023-04-07T14:06:43.931Z,100853.54
2023-04-07T14:09:13.280Z,100856.15
2023-04-07T14:11:41.756Z,100854.44
2023-04-07T14:14:14.656Z,100855.80
2023-04-07T14:16:44.692Z,100855.64
2023-04-07T14:19:12.881Z,100851.67
2023-04-07T14:21:46.024Z,100849.98
2023-04-07T14:24:14.396Z,100851.98
2023-04-07T14:26:45.683Z,100856.80
2023-04-07T14:29:14.236Z,100854.64
2023-04-07T14:31:42.937Z,100858.98
2023-04-07T14:34:11.168Z,100856.64
2023-04-07T14:36:39.878Z,100861.93
2023-04-07T14:39:09.598Z,100863.94
2023-04-07T14:41:38.286Z,100863.16
2023-04-07T14:44:06.911Z,100860.50
2023-04-07T14:46:38.344Z,100860.98
2023-04-07T14:49:07.626Z,100857.86
2023-04-07T14:51:35.895Z,100859.52
2023-04-07T14:54:04.156Z,100858.67
2023-04-07T14:56:33.697Z,100858.58
2023-04-07T14:59:04.748Z,100859.21
2023-04-07T15:01:33.952Z,100856.77
2023-04-07T15:04:03.498Z,100857.80
2023-04-07T15:06:32.210Z,100855.92
2023-04-07T15:09:01.177Z,100856.27
2023-04-07T15:11:29.850Z,100860.26
2023-04-07T15:14:06.898Z,100863.07
2023-04-07T15:16:35.897Z,100863.00
2023-04-07T15:19:04.285Z,100863.55
2023-04-07T15:21:32.478Z,100862.06
2023-04-07T15:24:00.987Z,100863.36
2023-04-07T15:26:29.561Z,100864.52
2023-04-07T15:28:59.546Z,100866.23
2023-04-07T15:31:30.485Z,100870.19
2023-04-07T15:33:59.166Z,100866.88
2023-04-07T15:36:27.512Z,100866.64
2023-04-07T15:38:56.785Z,100864.86
2023-04-07T15:41:24.972Z,100866.91
2023-04-07T15:43:53.999Z,100868.45
2023-04-07T15:46:22.589Z,100868.59
2023-04-07T15:48:52.060Z,100866.48
2023-04-07T15:51:20.306Z,100866.73
2023-04-07T15:53:48.908Z,100873.04
2023-04-07T15:56:17.294Z,100871.88
2023-04-07T15:58:46.423Z,100867.14
2023-04-07T16:01:14.804Z,100865.72
2023-04-07T16:03:44.570Z,100868.63
2023-04-07T16:06:13.623Z,100869.84
2023-04-07T16:08:41.844Z,100868.17
2023-04-07T16:11:11.226Z,100868.59
2023-04-07T16:13:39.605Z,100865.21
2023-04-07T16:16:07.904Z,100864.00
2023-04-07T16:18:36.266Z,100865.66
2023-04-07T16:21:08.019Z,100857.86
2023-04-07T16:23:45.052Z,100860.54
2023-04-07T16:26:13.344Z,100865.13
2023-04-07T16:28:42.126Z,100868.77
2023-04-07T16:31:12.553Z,100869.58
2023-04-07T16:33:43.006Z,100876.51
2023-04-07T16:36:11.585Z,100876.95
2023-04-07T16:38:40.653Z,100881.92
2023-04-07T16:41:08.996Z,100880.75
2023-04-07T16:43:42.640Z,100886.80
2023-04-07T16:46:12.939Z,100891.40
2023-04-07T16:48:41.222Z,100901.54
2023-04-07T16:51:09.475Z,100907.83
2023-04-07T16:53:38.128Z,100910.82
2023-04-07T16:56:07.517Z,100911.79
2023-04-07T16:58:36.901Z,100912.74
2023-04-07T17:01:05.107Z,100913.63
2023-04-07T17:03:37.405Z,100924.63
2023-04-07T17:06:05.900Z,100936.91
2023-04-07T17:08:38.432Z,100942.66
2023-04-07T17:11:09.055Z,100945.86
2023-04-07T17:13:37.812Z,100950.85
2023-04-07T17:16:12.972Z,100954.94
2023-04-07T17:18:42.493Z,100955.63
2023-04-07T17:21:10.797Z,100960.18
2023-04-07T17:23:42.644Z,100965.48
2023-04-07T17:26:11.803Z,100968.11
2023-04-07T17:28:40.105Z,100972.26
2023-04-07T17:31:13.520Z,100979.06
2023-04-07T17:33:42.753Z,100983.76
2023-04-07T17:36:10.951Z,100987.60
2023-04-07T17:38:40.576Z,100991.48
2023-04-07T17:41:09.175Z,100993.63
2023-04-07T17:43:37.631Z,100995.04
2023-04-07T17:46:06.389Z,101004.33
2023-04-07T17:48:34.895Z,101006.70
2023-04-07T17:51:03.362Z,101011.17
2023-04-07T17:53:32.551Z,101014.28
2023-04-07T17:56:01.773Z,101016.88
2023-04-07T17:58:30.623Z,101018.30
2023-04-07T18:00:59.430Z,101018.65
2023-04-07T18:03:28.975Z,101019.25
2023-04-07T18:05:59.118Z,101024.94
2023-04-07T18:08:28.295Z,101021.50
2023-04-07T18:11:07.423Z,101018.91
2023-04-07T18:13:38.836Z,101022.42
2023-04-07T18:16:09.614Z,101017.53
2023-04-07T18:18:43.833Z,101019.23
2023-04-07T18:21:12.164Z,101018.85
2023-04-07T18:23:41.126Z,101020.67
2023-04-07T18:26:09.980Z,101017.38
2023-04-07T18:28:38.328Z,101017.06
2023-04-07T18:31:10.037Z,101017.83
2023-04-07T18:33:40.434Z,101014.59
2023-04-07T18:36:08.744Z,101019.12
2023-04-07T18:38:39.236Z,101016.65
2023-04-07T18:41:08.992Z,101015.16
2023-04-07T18:43:39.517Z,101017.67
2023-04-07T18:46:07.846Z,101021.65
2023-04-07T18:48:36.871Z,101022.66
2023-04-07T18:51:05.301Z,101022.77
2023-04-07T18:53:33.742Z,101017.27
2023-04-07T18:56:02.881Z,101017.30
2023-04-07T18:58:31.998Z,101017.11
2023-04-07T19:01:00.661Z,101015.48
2023-04-07T19:03:30.026Z,101018.80
2023-04-07T19:05:59.113Z,101020.52
2023-04-07T19:08:34.075Z,101025.95
2023-04-07T19:11:02.568Z,101023.27
2023-04-07T19:13:30.841Z,101026.33
2023-04-07T19:15:59.183Z,101021.71
2023-04-07T19:18:29.340Z,101020.92
2023-04-07T19:20:58.239Z,101020.64
2023-04-07T19:23:32.502Z,101022.08
2023-04-07T19:26:01.128Z,101020.41
2023-04-07T19:28:29.583Z,101023.32
2023-04-07T19:30:58.659Z,101020.23
2023-04-07T19:33:27.608Z,101018.58
2023-04-07T19:35:56.570Z,101021.62
2023-04-07T19:38:25.442Z,101021.92
2023-04-07T19:40:54.010Z,101023.79
2023-04-07T19:43:22.645Z,101022.00
2023-04-07T19:45:51.111Z,101025.14
2023-04-07T19:48:19.331Z,101024.83
2023-04-07T19:50:49.734Z,101027.98
2023-04-07T19:53:26.203Z,101026.80
2023-04-07T19:55:56.206Z,101026.85
2023-04-07T19:58:25.015Z,101028.49
2023-04-07T20:00:55.327Z,101028.77
2023-04-07T20:03:24.606Z,101030.70
2023-04-07T20:05:53.221Z,101029.44
2023-04-07T20:08:21.955Z,101030.37
2023-04-07T20:10:52.674Z,101031.52
2023-04-07T20:13:23.977Z,101029.40
2023-04-07T20:15:53.972Z,101032.02
2023-04-07T20:18:22.368Z,101032.36
2023-04-07T20:21:01.380Z,101035.31
2023-04-07T20:23:30.553Z,101033.77
2023-04-07T20:25:59.009Z,101032.52
2023-04-07T20:28:27.285Z,101031.16
2023-04-07T20:30:55.944Z,101028.58
2023-04-07T20:33:24.731Z,101027.76
2023-04-07T20:35:54.862Z,101028.99
2023-04-07T20:38:23.340Z,101026.44
2023-04-07T20:40:54.417Z,101027.59
2023-04-07T20:43:24.500Z,101030.52
2023-04-07T20:45:53.109Z,101024.06
2023-04-07T20:48:23.973Z,101023.76
2023-04-07T20:50:53.055Z,101022.69
2023-04-07T20:53:25.452Z,101021.84
2023-04-07T20:55:54.025Z,101021.19
2023-04-07T20:58:23.111Z,101020.67
2023-04-07T21:00:56.815Z,101019.54
2023-04-07T21:03:26.469Z,101020.17
2023-04-07T21:05:54.984Z,101016.96
2023-04-07T21:08:24.737Z,101017.84
2023-04-07T21:10:53.489Z,101017.90
2023-04-07T21:13:22.696Z,101016.08
2023-04-07T21:15:51.728Z,101016.70
2023-04-07T21:18:20.726Z,101013.83
2023-04-07T21:20:49.109Z,101015.32
2023-04-07T21:23:17.497Z,101014.92
2023-04-07T21:25:45.679Z,101016.98
2023-04-07T21:28:16.923Z,101016.56
2023-04-07T21:30:45.985Z,101015.11
2023-04-07T21:33:15.512Z,101015.79
2023-04-07T21:35:45.066Z,101014.88
2023-04-07T21:38:13.547Z,101013.30
2023-04-07T21:40:43.856Z,101014.72
2023-04-07T21:43:12.383Z,101014.23
2023-04-07T21:45:40.679Z,101012.59
2023-04-07T21:48:08.962Z,101007.84
2023-04-07T21:50:37.280Z,101008.70
2023-04-07T21:53:05.852Z,101006.27
2023-04-07T21:55:33.951Z,101007.59
2023-04-07T21:58:02.182Z,101010.67
2023-04-07T22:00:33.953Z,101009.23
2023-04-07T22:03:02.862Z,101009.71
2023-04-07T22:05:32.970Z,101013.38
2023-04-07T22:08:03.338Z,101008.29
2023-04-07T22:10:31.717Z,101004.11
2023-04-07T22:12:59.904Z,101002.70
2023-04-07T22:15:28.565Z,101000.13
2023-04-07T22:17:57.895Z,100999.18
2023-04-07T22:20:29.288Z,100998.33
2023-04-07T22:22:58.260Z,101001.16
2023-04-07T22:25:26.497Z,101001.70
2023-04-07T22:27:56.954Z,101003.67
2023-04-07T22:30:26.437Z,101002.02
2023-04-07T22:32:56.564Z,100997.88
2023-04-07T22:35:24.747Z,101000.52
2023-04-07T22:37:52.958Z,101000.83
2023-04-07T22:40:21.949Z,100999.67
2023-04-07T22:42:50.075Z,100995.94
2023-04-07T22:45:19.497Z,100993.88
2023-04-07T22:47:48.182Z,100995.64
2023-04-07T22:50:16.881Z,100988.97
2023-04-07T22:52:45.334Z,100990.36
2023-04-07T22:55:13.484Z,100987.27
2023-04-07T22:57:42.737Z,100991.59
2023-04-07T23:00:11.921Z,100991.23
2023-04-07T23:02:42.313Z,100991.71
2023-04-07T23:05:12.075Z,100989.92
2023-04-07T23:07:40.410Z,100987.02
2023-04-07T23:10:10.933Z,100985.71
2023-04-07T23:12:40.715Z,100982.40
2023-04-07T23:15:09.232Z,100982.21
2023-04-07T23:17:40.585Z,100975.89
2023-04-07T23:20:10.029Z,100974.27
2023-04-07T23:22:38.447Z,100974.94
2023-04-07T23:25:07.447Z,100975.83
2023-04-07T23:27:36.578Z,100972.47
2023-04-07T23:30:05.330Z,100973.41
2023-04-07T23:32:33.976Z,100971.88
2023-04-07T23:35:02.821Z,100972.34
2023-04-07T23:37:31.640Z,100971.14
2023-04-07T23:39:59.830Z,100970.41
2023-04-07T23:42:27.991Z,100969.83
2023-04-07T23:44:56.357Z,100968.07
2023-04-07T23:47:25.961Z,100970.83
2023-04-07T23:49:54.404Z,100972.25
2023-04-07T23:52:23.635Z,100976.63
2023-04-07T23:54:51.890Z,100979.11
2023-04-07T23:57:20.051Z,100978.96
2023-04-07T23:59:49.288Z,100981.52
